• Join FlightAware (Why Join?)
  • Login
  • US Flag 
02:23PM EDT


 

Airport Tracker/Info


-or-


 

Live Flight TrackerFlight Track Log ✈ UCA3597 ✈ 03-Dec-2013 ✈ KBGM - KIAD

Flight Track Log - Related Links

Times and Time Zones

All times are in EST time to prevent confusion due to time zone crossing. See the UCA3597 flight status page for this flight to view local times or setup timezone preferences in your user account.

Time Position Orientation Groundspeed Altitude Reporting Facility
EST Latitude Longitude Course Direction KTS MPH feet Rate Location/Type
07:55PM 42.2122 -76.0903 211° Southwest 173 199 5,200  Level New York Center
07:56PM 42.1669 -76.1286 212° Southwest 192 221 6,500 1,140 Climbing New York Center
07:57PM 42.1175 -76.1639 208° Southwest 204 235 7,500 960 Climbing New York Center
07:58PM 42.0656 -76.2042 210° Southwest 209 241 8,500 1,020 Climbing New York Center
07:59PM 42.0136 -76.2447 210° Southwest 220 253 9,600 1,020 Climbing New York Center
08:00PM 41.8455 -76.1522 211° Southwest  Level Estimated
08:00PM 41.9639 -76.2853 211° Southwest 220 253 10,600  Level New York Center
08:01PM 41.9078 -76.3308 211° Southwest 220 253 11,700 1,020 Climbing New York Center
08:02PM 41.8581 -76.3711 211° Southwest 220 253 12,700 900 Climbing New York Center
08:03PM 41.8125 -76.4061 210° Southwest 220 253 13,500 900 Climbing New York Center
08:04PM 41.7564 -76.4486 209° Southwest 220 253 14,500 1,080 Climbing New York Center
08:05PM 41.7003 -76.4911 209° Southwest 225 259 15,700 720 Climbing New York Center
08:06PM 41.6458 -76.5367 212° Southwest 219 252 16,000 60 Climbing New York Center
08:07PM 41.5856 -76.5811 209° Southwest 241 277 15,900 -60 Descending New York Center
08:08PM 41.5292 -76.6264 211° Southwest 258 297 15,900  Level New York Center
08:09PM 41.4686 -76.6708 209° Southwest 258 297 15,900  Level New York Center
08:10PM 41.4033 -76.7258 212° Southwest 258 297 15,900  Level New York Center
08:11PM 41.3425 -76.7731 210° Southwest 258 297 15,900  Level New York Center
08:12PM 41.2708 -76.7917 191° South 258 297 16,000  Climbing New York Center
08:13PM 41.1972 -76.8044 187° South 263 303 15,900 -60 Descending New York Center
08:14PM 41.1258 -76.8172 188° South 263 303 15,900  Level New York Center
08:15PM 41.0519 -76.8328 189° South 263 303 15,900  Level New York Center
08:16PM 40.9783 -76.8481 189° South 268 308 15,900  Level New York Center
08:17PM 40.9172 -76.8619 190° South 262 302 15,900  Level New York Center
08:18PM 40.8353 -76.8764 188° South 262 302 16,000  Climbing New York Center
08:19PM 40.7719 -76.8900 189° South 262 302 16,000  Level New York Center
08:20PM 40.6936 -76.9158 194° South 262 302 16,000  Level New York Center
08:21PM 40.6300 -76.9347 193° South 262 302 16,000  Level New York Center
08:22PM 40.5536 -76.9581 193° South 267 307 16,000  Level New York Center
08:23PM 40.4881 -76.9794 194° South 267 307 16,000  Level New York Center
08:24PM 40.4097 -77.0025 193° South 267 307 16,000 -180 Level New York Center
08:25PM 40.3458 -77.0239 194° South 267 307 15,700 -780 Descending New York Center
08:27PM 40.2713 -77.0370 193° South  Level FlightAware Approximate
08:27PM 40.2167 -77.0667 193° South 275 316 14,000  Level Potomac TRACON
08:28PM 40.1333 -77.0833 189° South 272 313 13,000 -900 Descending Potomac TRACON
08:29PM 40.0833 -77.1000 194° South 273 314 12,200 -960 Descending Potomac TRACON
08:30PM 40.0167 -77.1167 191° South 262 302 11,200 -1,020 Descending Potomac TRACON
08:31PM 39.9333 -77.1500 197° South 258 297 10,200 -1,080 Descending Potomac TRACON
08:32PM 39.8667 -77.1667 191° South 264 304 9,100 -960 Descending Potomac TRACON
08:33PM 39.8000 -77.2000 201° Southwest 251 289 8,300 -900 Descending Potomac TRACON
08:34PM 39.7500 -77.2500 218° Southwest 243 280 7,300 -1,020 Descending Potomac TRACON
08:35PM 39.6833 -77.2833 201° Southwest 241 277 6,300 -720 Descending Potomac TRACON
08:36PM 39.6167 -77.3333 210° Southwest 239 275 5,900 -660 Descending Potomac TRACON
08:37PM 39.5500 -77.3833 210° Southwest 249 287 5,000 -840 Descending Potomac TRACON
08:38PM 39.5000 -77.4167 207° Southwest 234 269 4,300 -540 Descending Potomac TRACON
08:39PM 39.4333 -77.4333 191° South 236 272 4,000 -180 Descending Potomac TRACON
08:40PM 39.3667 -77.4333 180° South 238 274 4,000 -120 Level Potomac TRACON
08:41PM 39.3000 -77.4333 180° South 238 274 3,800 -540 Descending Potomac TRACON
08:42PM 39.2333 -77.4333 180° South 230 265 3,000 -480 Descending Potomac TRACON
08:43PM 39.1833 -77.4333 180° South 207 238 3,000  Level Potomac TRACON
08:44PM 39.1167 -77.4333 180° South 198 228 3,000 -240 Level Potomac TRACON
08:45PM 39.0667 -77.4333 180° South 194 223 2,600 -720 Descending Potomac TRACON
08:46PM 39.0167 -77.4333 180° South 158 182 1,600 -840 Descending Potomac TRACON
08:47PM 38.9833 -77.4333 180° South 113 130 1,000 -600 Descending Potomac TRACON
08:49PM 38.9474 -77.4599 180° South  Level Estimated